createdAt,value
2022-08-26T00:00:25.248Z,31.10
2022-08-26T00:02:59.029Z,31.00
2022-08-26T00:05:29.812Z,31.20
2022-08-26T00:08:03.431Z,31.40
2022-08-26T00:10:36.199Z,31.50
2022-08-26T00:13:08.759Z,31.20
2022-08-26T00:15:41.946Z,31.30
2022-08-26T00:18:22.371Z,31.30
2022-08-26T00:20:57.065Z,31.20
2022-08-26T00:23:29.486Z,31.00
2022-08-26T00:26:02.504Z,31.00
2022-08-26T00:28:37.625Z,31.00
2022-08-26T00:31:11.000Z,30.70
2022-08-26T00:33:42.272Z,30.80
2022-08-26T00:36:20.267Z,30.70
2022-08-26T00:38:50.572Z,30.70
2022-08-26T00:41:22.881Z,30.60
2022-08-26T00:43:55.335Z,30.60
2022-08-26T00:46:34.953Z,30.50
2022-08-26T00:49:15.841Z,30.40
2022-08-26T00:51:57.663Z,30.40
2022-08-26T00:54:39.377Z,30.40
2022-08-26T00:57:22.093Z,30.30
2022-08-26T00:59:58.225Z,30.30
2022-08-26T01:02:33.069Z,30.20
2022-08-26T01:05:08.403Z,30.20
2022-08-26T01:07:39.615Z,30.20
2022-08-26T01:10:18.363Z,30.20
2022-08-26T01:13:11.624Z,30.10
2022-08-26T01:15:48.656Z,30.10
2022-08-26T01:18:22.266Z,30.00
2022-08-26T01:21:23.493Z,30.00
2022-08-26T01:23:57.503Z,30.00
2022-08-26T01:26:38.239Z,29.90
2022-08-26T01:29:11.716Z,29.90
2022-08-26T01:31:46.571Z,29.80
2022-08-26T01:34:26.598Z,29.80
2022-08-26T01:37:28.539Z,29.80
2022-08-26T01:39:58.671Z,29.70
2022-08-26T01:42:32.423Z,29.70
2022-08-26T01:45:26.905Z,29.60
2022-08-26T01:48:02.258Z,29.50
2022-08-26T01:50:40.428Z,29.50
2022-08-26T01:53:14.091Z,29.50
2022-08-26T01:55:48.056Z,29.40
2022-08-26T01:59:05.664Z,29.50
2022-08-26T02:01:36.775Z,29.50
2022-08-26T02:04:36.192Z,29.40
2022-08-26T02:07:11.818Z,29.40
2022-08-26T02:09:44.441Z,29.30
2022-08-26T02:12:18.259Z,29.30
2022-08-26T02:14:56.105Z,29.30
2022-08-26T02:17:34.760Z,29.20
2022-08-26T02:20:10.709Z,29.20
2022-08-26T02:22:45.876Z,29.20
2022-08-26T02:25:38.479Z,29.20
2022-08-26T02:28:11.610Z,29.10
2022-08-26T02:30:44.387Z,29.00
2022-08-26T02:33:15.243Z,28.90
2022-08-26T02:35:47.552Z,28.90
2022-08-26T02:38:20.332Z,28.90
2022-08-26T02:40:55.077Z,28.90
2022-08-26T02:43:31.634Z,28.90
2022-08-26T02:46:04.328Z,28.80
2022-08-26T02:48:36.216Z,28.90
2022-08-26T02:51:07.012Z,28.70
2022-08-26T02:53:39.441Z,28.70
2022-08-26T02:56:11.674Z,28.60
2022-08-26T02:58:44.449Z,28.60
2022-08-26T03:01:29.052Z,28.50
2022-08-26T03:04:01.166Z,28.60
2022-08-26T03:06:34.106Z,28.50
2022-08-26T03:09:04.948Z,28.40
2022-08-26T03:11:37.829Z,28.30
2022-08-26T03:14:09.534Z,28.30
2022-08-26T03:16:39.626Z,28.20
2022-08-26T03:19:12.781Z,28.20
2022-08-26T03:21:43.664Z,28.10
2022-08-26T03:24:18.250Z,28.10
2022-08-26T03:26:52.851Z,28.10
2022-08-26T03:29:43.316Z,28.20
2022-08-26T03:32:17.815Z,28.20
2022-08-26T03:34:49.115Z,28.30
2022-08-26T03:37:21.255Z,28.30
2022-08-26T03:39:53.295Z,28.20
2022-08-26T03:42:25.728Z,28.20
2022-08-26T03:44:59.262Z,28.10
2022-08-26T03:47:30.407Z,28.10
2022-08-26T03:50:01.928Z,28.10
2022-08-26T03:52:34.375Z,28.10
2022-08-26T03:55:09.067Z,28.10
2022-08-26T03:57:39.184Z,28.10
2022-08-26T04:00:18.462Z,28.10
2022-08-26T04:02:53.633Z,28.10
2022-08-26T04:05:24.963Z,28.00
2022-08-26T04:07:58.495Z,28.00
2022-08-26T04:10:29.645Z,28.00
2022-08-26T04:13:00.397Z,28.00
2022-08-26T04:15:34.055Z,28.00
2022-08-26T04:18:06.801Z,28.00
2022-08-26T04:20:37.419Z,28.00
2022-08-26T04:23:09.137Z,28.00
2022-08-26T04:25:43.541Z,27.90
2022-08-26T04:28:15.290Z,27.90
2022-08-26T04:30:50.598Z,27.90
2022-08-26T04:33:32.425Z,27.90
2022-08-26T04:36:08.368Z,27.90
2022-08-26T04:38:47.339Z,27.90
2022-08-26T04:41:18.629Z,27.80
2022-08-26T04:43:52.359Z,27.70
2022-08-26T04:46:25.671Z,27.70
2022-08-26T04:48:56.487Z,27.80
2022-08-26T04:51:29.979Z,27.70
2022-08-26T04:54:05.164Z,27.70
2022-08-26T04:56:40.362Z,27.70
2022-08-26T04:59:18.006Z,27.70
2022-08-26T05:01:52.184Z,27.60
2022-08-26T05:04:32.179Z,27.60
2022-08-26T05:07:04.358Z,27.50
2022-08-26T05:09:35.640Z,27.60
2022-08-26T05:12:07.731Z,27.60
2022-08-26T05:14:43.725Z,27.60
2022-08-26T05:17:17.041Z,27.50
2022-08-26T05:19:48.566Z,27.50
2022-08-26T05:22:20.951Z,27.40
2022-08-26T05:24:50.531Z,27.50
2022-08-26T05:27:26.048Z,27.40
2022-08-26T05:29:58.557Z,27.40
2022-08-26T05:32:31.297Z,27.40
2022-08-26T05:35:13.113Z,27.40
2022-08-26T05:37:43.764Z,27.30
2022-08-26T05:40:14.381Z,27.30
2022-08-26T05:42:48.903Z,27.30
2022-08-26T05:45:20.954Z,27.30
2022-08-26T05:47:54.811Z,27.20
2022-08-26T05:50:26.922Z,27.10
2022-08-26T05:52:59.084Z,27.10
2022-08-26T05:55:31.505Z,27.10
2022-08-26T05:58:06.785Z,27.10
2022-08-26T06:00:39.179Z,27.00
2022-08-26T06:03:12.601Z,26.90
2022-08-26T06:05:44.675Z,26.90
2022-08-26T06:08:19.796Z,26.90
2022-08-26T06:10:59.081Z,26.90
2022-08-26T06:13:32.191Z,26.90
2022-08-26T06:16:09.498Z,26.90
2022-08-26T06:18:44.884Z,26.90
2022-08-26T06:21:20.098Z,27.00
2022-08-26T06:24:12.230Z,26.90
2022-08-26T06:26:50.315Z,26.90
2022-08-26T06:29:27.316Z,26.90
2022-08-26T06:32:03.932Z,26.90
2022-08-26T06:34:35.478Z,26.90
2022-08-26T06:37:07.928Z,26.90
2022-08-26T06:39:40.143Z,26.80
2022-08-26T06:42:12.171Z,26.80
2022-08-26T06:44:47.568Z,26.80
2022-08-26T06:47:19.264Z,26.70
2022-08-26T06:49:53.418Z,26.60
2022-08-26T06:52:25.713Z,26.50
2022-08-26T06:54:58.449Z,26.50
2022-08-26T06:57:29.581Z,26.50
2022-08-26T07:00:06.430Z,26.60
2022-08-26T07:02:37.185Z,26.50
2022-08-26T07:05:08.707Z,26.50
2022-08-26T07:07:41.007Z,26.50
2022-08-26T07:10:13.550Z,26.50
2022-08-26T07:12:47.288Z,26.40
2022-08-26T07:15:18.159Z,26.40
2022-08-26T07:17:54.983Z,26.40
2022-08-26T07:20:26.102Z,26.30
2022-08-26T07:23:00.238Z,26.30
2022-08-26T07:25:36.992Z,26.20
2022-08-26T07:28:08.995Z,26.20
2022-08-26T07:30:44.336Z,26.10
2022-08-26T07:33:14.451Z,26.10
2022-08-26T07:35:47.308Z,26.10
2022-08-26T07:38:18.533Z,26.00
2022-08-26T07:40:53.257Z,26.00
2022-08-26T07:43:24.792Z,26.10
2022-08-26T07:45:55.218Z,26.10
2022-08-26T07:48:26.465Z,25.90
2022-08-26T07:51:00.819Z,25.70
2022-08-26T07:53:33.506Z,25.70
2022-08-26T07:56:04.233Z,25.80
2022-08-26T07:58:34.819Z,25.70
2022-08-26T08:01:11.322Z,25.50
2022-08-26T08:03:44.447Z,25.50
2022-08-26T08:06:15.899Z,25.50
2022-08-26T08:08:50.804Z,25.50
2022-08-26T08:11:25.172Z,25.40
2022-08-26T08:13:59.981Z,25.30
2022-08-26T08:16:33.439Z,25.40
2022-08-26T08:19:05.655Z,25.30
2022-08-26T08:21:36.937Z,25.50
2022-08-26T08:24:08.181Z,25.40
2022-08-26T08:26:39.208Z,25.30
2022-08-26T08:29:14.116Z,25.60
2022-08-26T08:31:56.887Z,25.30
2022-08-26T08:34:31.330Z,25.10
2022-08-26T08:37:10.611Z,25.10
2022-08-26T08:39:41.288Z,25.20
2022-08-26T08:42:12.137Z,25.30
2022-08-26T08:44:53.849Z,25.30
2022-08-26T08:47:38.102Z,25.20
2022-08-26T08:50:30.261Z,25.10
2022-08-26T08:53:32.851Z,25.00
2022-08-26T08:56:17.800Z,25.00
2022-08-26T08:59:12.522Z,24.90
2022-08-26T09:01:53.986Z,25.10
2022-08-26T09:04:46.272Z,24.90
2022-08-26T09:07:42.599Z,24.80
2022-08-26T09:10:23.361Z,24.90
2022-08-26T09:12:57.011Z,24.90
2022-08-26T09:15:53.632Z,25.00
2022-08-26T09:18:52.265Z,24.90
2022-08-26T09:21:29.563Z,24.80
2022-08-26T09:24:05.617Z,24.80
2022-08-26T09:26:43.423Z,24.70
2022-08-26T09:29:37.102Z,24.70
2022-08-26T09:32:25.980Z,24.70
2022-08-26T09:35:09.643Z,24.70
2022-08-26T09:40:28.335Z,24.70
2022-08-26T09:43:13.472Z,24.70
2022-08-26T09:46:00.027Z,24.60
2022-08-26T09:48:40.574Z,24.60
2022-08-26T09:51:32.700Z,24.60
2022-08-26T09:54:09.803Z,24.50
2022-08-26T09:56:42.433Z,24.60
2022-08-26T09:59:13.246Z,24.50
2022-08-26T10:01:45.566Z,24.50
2022-08-26T10:04:24.344Z,24.40
2022-08-26T10:07:01.965Z,24.50
2022-08-26T10:09:39.071Z,24.50
2022-08-26T10:12:17.453Z,24.40
2022-08-26T10:14:58.938Z,24.30
2022-08-26T10:17:51.881Z,24.40
2022-08-26T10:20:31.659Z,24.50
2022-08-26T10:23:16.654Z,24.30
2022-08-26T10:25:54.389Z,24.30
2022-08-26T10:28:35.596Z,24.30
2022-08-26T10:31:38.221Z,24.30
2022-08-26T10:34:15.494Z,24.30
2022-08-26T10:37:15.919Z,24.20
2022-08-26T10:39:58.954Z,24.30
2022-08-26T10:43:49.758Z,24.20
2022-08-26T10:46:27.448Z,24.00
2022-08-26T10:49:19.168Z,24.20
2022-08-26T10:52:19.319Z,24.30
2022-08-26T10:55:03.583Z,24.30
2022-08-26T10:58:11.955Z,24.40
2022-08-26T11:01:10.549Z,24.20
2022-08-26T11:04:03.505Z,24.10
2022-08-26T11:06:37.825Z,24.20
2022-08-26T11:09:12.767Z,24.30
2022-08-26T11:11:49.057Z,24.20
2022-08-26T11:14:29.264Z,24.30
2022-08-26T11:17:06.282Z,24.40
2022-08-26T11:20:00.252Z,24.20
2022-08-26T11:22:47.572Z,24.10
2022-08-26T11:25:30.894Z,23.90
2022-08-26T11:28:01.228Z,23.90
2022-08-26T11:30:39.987Z,23.80
2022-08-26T11:33:33.779Z,23.70
2022-08-26T11:36:11.538Z,23.80
2022-08-26T11:38:46.144Z,23.90
2022-08-26T11:41:30.240Z,23.90
2022-08-26T11:44:03.656Z,23.80
2022-08-26T11:46:38.894Z,23.60
2022-08-26T11:49:14.338Z,23.60
2022-08-26T11:51:48.332Z,23.60
2022-08-26T11:54:32.893Z,23.70
2022-08-26T11:57:11.707Z,23.70
2022-08-26T11:59:45.600Z,23.70
2022-08-26T12:02:22.930Z,23.70
2022-08-26T12:04:56.181Z,23.80
2022-08-26T12:07:32.639Z,23.80
2022-08-26T12:10:09.069Z,23.80
2022-08-26T12:12:41.322Z,23.90
2022-08-26T12:15:22.740Z,23.90
2022-08-26T12:17:55.199Z,24.00
2022-08-26T12:20:50.037Z,23.80
2022-08-26T12:23:37.492Z,23.70
2022-08-26T12:26:31.213Z,23.60
2022-08-26T12:29:20.041Z,23.70
2022-08-26T12:31:54.602Z,23.80
2022-08-26T12:34:28.053Z,23.70
2022-08-26T12:37:01.429Z,23.90
2022-08-26T12:39:40.639Z,23.80
2022-08-26T12:42:19.824Z,24.00
2022-08-26T12:45:00.170Z,23.90
2022-08-26T12:47:44.295Z,24.00
2022-08-26T12:50:26.424Z,24.00
2022-08-26T12:53:04.551Z,24.10
2022-08-26T12:56:00.410Z,24.20
2022-08-26T12:58:40.538Z,24.30
2022-08-26T13:01:15.560Z,24.40
2022-08-26T13:03:47.259Z,24.40
2022-08-26T13:06:20.438Z,24.40
2022-08-26T13:08:53.982Z,24.40
2022-08-26T13:11:27.223Z,24.50
2022-08-26T13:14:02.480Z,24.60
2022-08-26T13:16:38.406Z,24.70
2022-08-26T13:19:15.636Z,24.60
2022-08-26T13:21:54.904Z,24.60
2022-08-26T13:24:37.240Z,24.60
2022-08-26T13:27:11.255Z,24.80
2022-08-26T13:29:42.574Z,24.80
2022-08-26T13:32:15.874Z,24.80
2022-08-26T13:34:51.359Z,24.90
2022-08-26T13:37:34.495Z,24.90
2022-08-26T13:40:11.805Z,25.00
2022-08-26T13:42:49.590Z,25.00
2022-08-26T13:45:21.156Z,25.10
2022-08-26T13:47:51.993Z,25.00
2022-08-26T13:50:26.862Z,25.10
2022-08-26T13:52:58.293Z,25.10
2022-08-26T13:55:31.996Z,25.30
2022-08-26T13:58:02.676Z,25.30
2022-08-26T14:00:34.551Z,25.40
2022-08-26T14:03:12.613Z,25.40
2022-08-26T14:05:46.863Z,25.40
2022-08-26T14:08:18.846Z,25.50
2022-08-26T14:10:49.569Z,25.60
2022-08-26T14:13:22.968Z,25.60
2022-08-26T14:15:54.859Z,25.60
2022-08-26T14:18:37.362Z,25.70
2022-08-26T14:21:15.755Z,25.70
2022-08-26T14:23:49.917Z,25.80
2022-08-26T14:26:28.675Z,25.80
2022-08-26T14:29:01.953Z,25.90
2022-08-26T14:31:34.110Z,26.00
2022-08-26T14:34:09.746Z,26.00
2022-08-26T14:36:41.644Z,26.10
2022-08-26T14:39:15.859Z,26.10
2022-08-26T14:41:54.029Z,26.20
2022-08-26T14:44:33.785Z,26.30
2022-08-26T14:47:08.527Z,26.30
2022-08-26T14:49:43.853Z,26.30
2022-08-26T14:52:15.073Z,26.30
2022-08-26T14:54:49.102Z,26.40
2022-08-26T14:57:29.667Z,26.50
2022-08-26T14:59:59.985Z,26.60
2022-08-26T15:02:33.854Z,26.60
2022-08-26T15:05:05.340Z,26.70
2022-08-26T15:07:36.088Z,26.80
2022-08-26T15:10:12.813Z,26.80
2022-08-26T15:12:46.592Z,26.80
2022-08-26T15:15:22.181Z,26.80
2022-08-26T15:17:53.062Z,27.10
2022-08-26T15:20:25.976Z,27.00
2022-08-26T15:22:55.952Z,27.00
2022-08-26T15:25:28.544Z,27.20
2022-08-26T15:28:00.931Z,27.20
2022-08-26T15:30:33.199Z,27.30
2022-08-26T15:33:06.133Z,27.30
2022-08-26T15:35:46.789Z,27.40
2022-08-26T15:38:19.421Z,27.50
2022-08-26T15:40:53.923Z,27.80
2022-08-26T15:43:29.117Z,27.70
2022-08-26T15:46:01.857Z,27.80
2022-08-26T15:48:33.824Z,27.70
2022-08-26T15:51:06.095Z,27.80
2022-08-26T15:53:40.914Z,27.80
2022-08-26T15:56:15.451Z,27.80
2022-08-26T15:58:46.051Z,27.70
2022-08-26T16:01:18.384Z,28.00
2022-08-26T16:04:03.551Z,28.00
2022-08-26T16:06:37.104Z,27.90
2022-08-26T16:09:09.443Z,27.80
2022-08-26T16:11:40.638Z,27.80
2022-08-26T16:14:13.737Z,27.90
2022-08-26T16:16:45.833Z,28.10
2022-08-26T16:19:16.492Z,27.90
2022-08-26T16:21:47.367Z,28.00
2022-08-26T16:24:24.878Z,28.20
2022-08-26T16:26:58.524Z,28.30
2022-08-26T16:29:29.628Z,28.40
2022-08-26T16:32:00.401Z,28.40
2022-08-26T16:34:35.687Z,28.50
2022-08-26T16:37:06.249Z,28.60
2022-08-26T16:39:42.643Z,28.80
2022-08-26T16:42:17.630Z,28.80
2022-08-26T16:44:48.662Z,28.90
2022-08-26T16:47:20.586Z,28.80
2022-08-26T16:49:51.926Z,28.70
2022-08-26T16:52:22.535Z,28.80
2022-08-26T16:54:56.499Z,28.80
2022-08-26T16:57:26.995Z,29.00
2022-08-26T16:59:59.927Z,28.90
2022-08-26T17:02:30.345Z,29.10
2022-08-26T17:05:06.358Z,29.40
2022-08-26T17:07:39.511Z,29.30
2022-08-26T17:10:09.943Z,29.40
2022-08-26T17:12:41.758Z,29.30
2022-08-26T17:15:16.814Z,29.50
2022-08-26T17:17:49.872Z,29.50
2022-08-26T17:20:22.632Z,29.30
2022-08-26T17:22:58.265Z,29.10
2022-08-26T17:25:32.869Z,29.10
2022-08-26T17:28:13.298Z,29.50
2022-08-26T17:30:44.454Z,29.60
2022-08-26T17:33:14.840Z,29.50
2022-08-26T17:35:50.410Z,29.60
2022-08-26T17:38:22.451Z,29.60
2022-08-26T17:40:54.571Z,29.70
2022-08-26T17:43:47.422Z,29.70
2022-08-26T17:46:17.718Z,29.90
2022-08-26T17:48:51.617Z,29.90
2022-08-26T17:51:24.951Z,29.60
2022-08-26T17:53:55.561Z,29.80
2022-08-26T17:56:29.275Z,30.00
2022-08-26T17:59:02.248Z,30.00
2022-08-26T18:01:39.325Z,30.00
2022-08-26T18:04:11.678Z,29.90
2022-08-26T18:06:44.730Z,30.10
2022-08-26T18:09:19.833Z,30.50
2022-08-26T18:11:51.026Z,30.50
2022-08-26T18:14:22.744Z,30.50
2022-08-26T18:16:54.065Z,30.30
2022-08-26T18:19:26.503Z,30.40
2022-08-26T18:21:57.338Z,30.70
2022-08-26T18:24:29.579Z,30.70
2022-08-26T18:27:00.755Z,30.70
2022-08-26T18:29:31.658Z,30.70
2022-08-26T18:32:02.907Z,30.80
2022-08-26T18:34:35.280Z,30.90
2022-08-26T18:39:45.535Z,30.90
2022-08-26T18:42:18.057Z,31.00
2022-08-26T18:44:48.483Z,31.00
2022-08-26T18:47:20.386Z,30.70
2022-08-26T18:49:56.505Z,30.90
2022-08-26T18:52:30.680Z,31.10
2022-08-26T18:55:01.331Z,30.90
2022-08-26T18:57:32.460Z,31.00
2022-08-26T19:00:03.634Z,31.40
2022-08-26T19:02:33.941Z,31.30
2022-08-26T19:05:06.096Z,31.00
2022-08-26T19:07:40.941Z,31.00
2022-08-26T19:10:14.959Z,31.20
2022-08-26T19:12:51.860Z,31.10
2022-08-26T19:15:29.841Z,31.00
2022-08-26T19:18:00.864Z,31.10
2022-08-26T19:20:31.665Z,31.40
2022-08-26T19:23:10.595Z,31.60
2022-08-26T19:25:55.083Z,31.40
2022-08-26T19:28:28.116Z,31.50
2022-08-26T19:31:02.660Z,31.50
2022-08-26T19:33:35.002Z,31.40
2022-08-26T19:36:06.609Z,31.70
2022-08-26T19:38:37.799Z,31.40
2022-08-26T19:41:09.787Z,31.40
2022-08-26T19:43:43.887Z,31.60
2022-08-26T19:46:20.181Z,31.50
2022-08-26T19:48:55.691Z,31.70
2022-08-26T19:51:30.958Z,32.00
2022-08-26T19:54:07.001Z,31.70
2022-08-26T19:56:39.408Z,31.40
2022-08-26T19:59:10.588Z,31.40
2022-08-26T20:01:40.469Z,31.60
2022-08-26T20:04:12.286Z,31.80
2022-08-26T20:06:43.784Z,32.00
2022-08-26T20:09:15.925Z,31.90
2022-08-26T20:11:47.820Z,31.90
2022-08-26T20:14:22.545Z,31.80
2022-08-26T20:16:55.966Z,31.80
2022-08-26T20:19:47.701Z,31.60
2022-08-26T20:22:19.221Z,31.60
2022-08-26T20:24:51.186Z,31.60
2022-08-26T20:27:37.662Z,31.70
2022-08-26T20:30:11.115Z,32.00
2022-08-26T20:32:42.715Z,32.00
2022-08-26T20:35:16.560Z,32.10
2022-08-26T20:37:48.005Z,32.10
2022-08-26T20:40:19.380Z,32.30
2022-08-26T20:42:49.285Z,32.20
2022-08-26T20:45:22.122Z,32.20
2022-08-26T20:47:55.192Z,32.10
2022-08-26T20:50:29.063Z,32.20
2022-08-26T20:53:01.105Z,32.20
2022-08-26T20:55:31.903Z,32.00
2022-08-26T20:58:04.094Z,32.10
2022-08-26T21:00:41.082Z,32.30
2022-08-26T21:03:13.853Z,32.30
2022-08-26T21:05:49.829Z,32.20
2022-08-26T21:08:21.060Z,32.40
2022-08-26T21:10:54.669Z,32.40
2022-08-26T21:13:27.204Z,32.30
2022-08-26T21:16:03.778Z,32.00
2022-08-26T21:18:34.824Z,32.20
2022-08-26T21:21:10.963Z,32.20
2022-08-26T21:23:42.260Z,32.30
2022-08-26T21:26:15.635Z,32.50
2022-08-26T21:28:47.576Z,32.50
2022-08-26T21:31:23.124Z,32.60
2022-08-26T21:33:53.505Z,32.40
2022-08-26T21:36:26.487Z,32.50
2022-08-26T21:39:01.852Z,32.50
2022-08-26T21:41:32.636Z,32.30
2022-08-26T21:44:04.556Z,32.50
2022-08-26T21:46:35.788Z,32.50
2022-08-26T21:49:12.223Z,32.30
2022-08-26T21:51:45.443Z,32.30
2022-08-26T21:54:20.638Z,32.40
2022-08-26T21:56:52.333Z,32.50
2022-08-26T21:59:24.297Z,32.70
2022-08-26T22:01:55.957Z,32.70
2022-08-26T22:04:29.049Z,32.80
2022-08-26T22:07:00.257Z,32.80
2022-08-26T22:09:36.439Z,32.90
2022-08-26T22:12:14.794Z,34.20
2022-08-26T22:14:45.691Z,33.70
2022-08-26T22:17:18.719Z,33.30
2022-08-26T22:19:49.030Z,33.10
2022-08-26T22:22:19.598Z,33.00
2022-08-26T22:24:51.485Z,32.80
2022-08-26T22:27:22.117Z,32.80
2022-08-26T22:29:52.786Z,32.80
2022-08-26T22:32:24.312Z,32.90
2022-08-26T22:34:58.777Z,33.40
2022-08-26T22:37:29.131Z,33.40
2022-08-26T22:40:00.516Z,33.30
2022-08-26T22:42:32.132Z,33.00
2022-08-26T22:45:07.192Z,32.70
2022-08-26T22:47:39.244Z,32.70
2022-08-26T22:50:13.943Z,32.70
2022-08-26T22:52:44.275Z,32.80
2022-08-26T22:55:16.637Z,32.80
2022-08-26T22:57:50.094Z,32.70
2022-08-26T23:00:20.098Z,33.00
2022-08-26T23:03:05.378Z,33.20
2022-08-26T23:05:35.089Z,33.30
2022-08-26T23:08:07.596Z,34.20
2022-08-26T23:10:40.923Z,34.20
2022-08-26T23:13:15.640Z,33.40
2022-08-26T23:15:47.978Z,33.00
2022-08-26T23:18:19.235Z,32.90
2022-08-26T23:20:53.858Z,32.70
2022-08-26T23:23:26.534Z,32.70
2022-08-26T23:25:57.779Z,32.50
2022-08-26T23:28:28.191Z,32.50
2022-08-26T23:31:02.866Z,32.60
2022-08-26T23:33:51.206Z,32.50
2022-08-26T23:36:23.449Z,32.50
2022-08-26T23:38:55.488Z,32.20
2022-08-26T23:41:28.295Z,32.40
2022-08-26T23:44:03.292Z,32.30
2022-08-26T23:46:38.347Z,32.30
2022-08-26T23:49:09.437Z,32.40
2022-08-26T23:52:01.706Z,32.40
2022-08-26T23:54:32.967Z,32.30
2022-08-26T23:57:07.338Z,32.20
2022-08-26T23:59:40.369Z,32.20
